Time;durP1;ratioP1;P1;durP2;ratioP2;P2;SDS_P1;SDS_P2;PMS_P1;PMS_P2;Temp;Humidity;BMP_temperature;BMP_pressure;BME280_temperature;BME280_humidity;BME280_pressure;Samples;Min_cycle;Max_cycle;Signal;HPM_P1;HPM_P2
2023/05/20 00:00:29;;;;;;;0.35;0.15;;;9.60;99.90;;;8.37;84.56;102436.94;5002048;28;20126;-76
2023/05/20 00:02:56;;;;;;;0.22;0.10;;;9.60;99.90;;;8.34;86.37;102437.84;5063483;28;20070;-75
2023/05/20 00:05:22;;;;;;;0.22;0.10;;;9.60;99.90;;;8.31;90.29;102445.72;5065135;28;20525;-76
2023/05/20 00:07:48;;;;;;;0.30;0.20;;;9.60;99.90;;;8.35;91.72;102444.81;5054298;28;20048;-75
2023/05/20 00:10:14;;;;;;;0.20;0.20;;;9.70;99.90;;;8.44;92.63;102443.03;5063977;28;20038;-75
2023/05/20 00:12:40;;;;;;;0.10;0.10;;;9.70;99.90;;;8.50;90.19;102429.84;5063705;28;20101;-75
2023/05/20 00:15:07;;;;;;;0.47;0.17;;;9.70;99.90;;;8.53;89.65;102437.66;5064333;28;20582;-75
2023/05/20 00:17:33;;;;;;;1.30;0.45;;;9.80;99.90;;;8.52;91.07;102438.56;5059763;28;20038;-76
2023/05/20 00:19:59;;;;;;;0.10;0.10;;;9.80;99.90;;;8.52;92.60;102441.19;5064351;28;20030;-76
2023/05/20 00:22:25;;;;;;;3.50;0.20;;;9.80;99.90;;;8.56;91.84;102448.16;4997377;28;20042;-76
2023/05/20 00:24:51;;;;;;;0.47;0.20;;;9.80;99.90;;;8.56;93.86;102442.91;5064098;28;20493;-76
2023/05/20 00:27:17;;;;;;;0.10;0.03;;;9.80;99.90;;;8.56;92.94;102442.91;5062946;28;20067;-76
2023/05/20 00:29:42;;;;;;;0.17;0.17;;;9.80;99.90;;;8.59;90.95;102438.47;5063765;28;20127;-75
2023/05/20 00:32:08;;;;;;;0.00;0.00;;;9.80;99.90;;;8.60;89.08;102434.97;5063648;28;20038;-75
2023/05/20 00:34:34;;;;;;;0.50;0.13;;;9.80;99.90;;;8.55;87.69;102434.16;4997856;28;20530;-75
2023/05/20 00:37:00;;;;;;;0.57;0.20;;;9.80;99.90;;;8.48;88.40;102431.59;5059659;28;20125;-76
2023/05/20 00:39:26;;;;;;;2.50;0.20;;;9.70;99.90;;;8.44;88.39;102424.66;4999981;28;20121;-75
2023/05/20 00:41:52;;;;;;;0.05;0.05;;;9.70;99.90;;;8.41;86.83;102433.44;5065431;28;20034;-76
2023/05/20 00:44:17;;;;;;;0.95;0.80;;;9.60;99.90;;;8.34;87.40;102427.34;5002841;28;20065;-75
2023/05/20 00:46:46;;;;;;;0.88;0.40;;;9.60;99.90;;;8.31;88.82;102427.34;5057639;28;20046;-75
2023/05/20 00:49:13;;;;;;;0.28;0.28;;;9.60;99.90;;;8.27;91.49;102436.19;5038546;28;20485;-75
2023/05/20 00:51:39;;;;;;;0.60;0.20;;;9.60;99.90;;;8.29;90.28;102430.88;5055858;28;20401;-75
2023/05/20 00:54:05;;;;;;;0.75;0.30;;;9.60;99.90;;;8.27;89.04;102423.06;5066538;28;20123;-75
2023/05/20 00:56:31;;;;;;;0.30;0.30;;;9.50;99.90;;;8.28;88.96;102431.78;5066831;28;20522;-75
2023/05/20 00:58:57;;;;;;;0.30;0.30;;;9.50;99.90;;;8.28;87.84;102432.66;5066970;28;20046;-75
2023/05/20 01:01:23;;;;;;;0.45;0.30;;;9.50;99.90;;;8.23;87.76;102434.47;5067087;28;20517;-75
2023/05/20 01:03:49;;;;;;;0.10;0.10;;;9.50;99.90;;;8.18;88.98;102426.59;5066575;28;20050;-75
2023/05/20 01:06:15;;;;;;;2.58;0.30;;;9.50;99.90;;;8.17;87.59;102424.88;5065554;28;20697;-75
2023/05/20 01:08:41;;;;;;;2.33;0.52;;;9.40;99.90;;;8.15;86.76;102420.53;5067268;28;20046;-75
2023/05/20 01:11:27;;;;;;;0.93;0.22;;;9.40;99.90;;;8.10;85.63;102422.31;5065513;28;21241;-75
2023/05/20 01:14:02;;;;;;;0.10;0.10;;;9.30;99.90;;;8.04;85.33;102412.75;5063063;28;20030;-75
2023/05/20 01:16:29;;;;;;;0.03;0.03;;;9.30;99.90;;;7.98;84.81;102416.31;5056289;28;20037;-75
2023/05/20 01:18:56;;;;;;;0.30;0.10;;;9.20;99.90;;;7.96;85.17;102419.81;5068340;28;20034;-75
2023/05/20 01:21:22;;;;;;;0.57;0.38;;;9.20;99.90;;;7.95;85.39;102423.34;5065501;28;20028;-75
2023/05/20 01:23:48;;;;;;;0.10;0.10;;;9.20;99.90;;;7.91;85.62;102421.63;5066998;28;20053;-75
2023/05/20 01:26:14;;;;;;;0.73;0.63;;;9.20;99.90;;;7.91;86.19;102421.63;5065830;28;20087;-77
2023/05/20 01:28:44;;;;;;;0.13;0.13;;;9.10;99.90;;;7.89;85.55;102413.75;5072531;28;20185;-75
2023/05/20 01:31:23;;;;;;;0.57;0.30;;;9.10;99.90;;;7.88;85.67;102416.38;5063430;28;20114;-76
2023/05/20 01:33:55;;;;;;;0.10;0.10;;;9.10;99.90;;;7.86;86.98;102420.78;5051534;28;20046;-75
2023/05/20 01:36:21;;;;;;;0.30;0.20;;;9.10;99.90;;;7.85;86.09;102419.91;5064550;28;20779;-76
2023/05/20 01:38:49;;;;;;;0.10;0.10;;;9.10;99.90;;;7.83;85.07;102426.06;5066175;28;20045;-75
2023/05/20 01:41:15;;;;;;;0.00;0.00;;;9.00;99.90;;;7.75;86.49;102426.09;5066445;28;20028;-75
2023/05/20 01:43:43;;;;;;;0.20;0.10;;;9.00;99.90;;;7.73;86.42;102425.25;5065785;28;20034;-76
2023/05/20 01:46:09;;;;;;;0.20;0.20;;;9.00;99.90;;;7.70;86.46;102433.16;5066191;28;20424;-75
2023/05/20 01:48:35;;;;;;;3.70;0.40;;;8.90;99.90;;;7.66;86.91;102426.19;5066146;28;20053;-75
2023/05/20 01:51:01;;;;;;;1.98;0.38;;;8.90;99.90;;;7.66;86.52;102428.81;5058684;28;20549;-76
2023/05/20 01:53:27;;;;;;;0.10;0.10;;;8.90;99.90;;;7.63;86.67;102420.97;5066383;28;20034;-75
2023/05/20 01:55:52;;;;;;;0.40;0.20;;;8.90;99.90;;;7.61;87.67;102426.22;5066151;28;20061;-75
2023/05/20 01:58:18;;;;;;;0.10;0.10;;;8.90;99.90;;;7.60;87.72;102422.75;5066187;28;20049;-75
2023/05/20 02:00:44;;;;;;;0.30;0.20;;;8.90;99.90;;;7.61;88.25;102426.22;5065125;28;20549;-75
2023/05/20 02:03:10;;;;;;;0.85;0.10;;;8.80;99.90;;;7.55;89.22;102427.13;5056465;28;20125;-75
2023/05/20 02:05:36;;;;;;;0.45;0.10;;;8.90;99.90;;;7.59;91.18;102428.84;5065709;28;20042;-75
2023/05/20 02:08:01;;;;;;;0.30;0.15;;;8.90;99.90;;;7.64;91.50;102434.06;5064828;28;20041;-76
2023/05/20 02:10:27;;;;;;;0.35;0.35;;;8.90;99.90;;;7.67;90.15;102427.94;5065644;28;20513;-75
2023/05/20 02:12:53;;;;;;;0.10;0.10;;;8.90;99.90;;;7.70;90.07;102433.16;5065488;28;20034;-76
2023/05/20 02:15:19;;;;;;;0.20;0.20;;;9.00;99.90;;;7.65;88.93;102427.09;5002074;28;20090;-76
2023/05/20 02:17:45;;;;;;;0.65;0.30;;;8.90;99.90;;;7.59;87.96;102422.75;5065638;28;20584;-75
2023/05/20 02:20:12;;;;;;;0.00;0.00;;;8.80;99.90;;;7.47;87.83;102421.06;5064193;28;20038;-75
2023/05/20 02:22:38;;;;;;;0.08;0.08;;;8.80;99.90;;;7.43;87.24;102423.72;5070409;28;20079;-75
2023/05/20 02:25:05;;;;;;;0.63;0.47;;;8.70;99.90;;;7.33;87.14;102421.16;5065160;28;20045;-75
2023/05/20 02:27:31;;;;;;;0.45;0.28;;;8.70;99.90;;;7.26;87.64;102422.09;5056469;28;20494;-76
2023/05/20 02:29:57;;;;;;;0.25;0.25;;;8.60;99.90;;;7.24;86.72;102423.84;5068127;28;20090;-75
2023/05/20 02:32:26;;;;;;;0.75;0.30;;;8.50;99.90;;;7.16;86.41;102428.25;5071287;28;20034;-75
2023/05/20 02:34:53;;;;;;;0.45;0.08;;;8.40;99.90;;;7.05;86.37;102430.91;5055846;28;20046;-76
2023/05/20 02:37:20;;;;;;;0.40;0.15;;;8.40;99.90;;;7.03;87.06;102427.44;5063189;28;20073;-75
2023/05/20 02:39:46;;;;;;;1.33;0.35;;;8.30;99.90;;;6.92;88.09;102418.75;5064897;28;20525;-75
2023/05/20 02:42:12;;;;;;;3.10;0.20;;;8.40;99.90;;;6.97;89.03;102415.22;5063915;28;20110;-76
2023/05/20 02:44:38;;;;;;;0.20;0.15;;;8.40;99.90;;;7.04;92.14;102416.09;5065425;28;21482;-75
2023/05/20 02:47:04;;;;;;;0.25;0.15;;;8.40;99.90;;;7.11;92.84;102417.78;5065297;28;20022;-75
2023/05/20 02:49:30;;;;;;;1.38;0.52;;;8.40;99.90;;;7.16;91.44;102429.09;5065731;28;20042;-75
2023/05/20 02:51:56;;;;;;;0.08;0.08;;;8.40;99.90;;;7.12;89.82;102430.00;5064784;28;20070;-75
2023/05/20 02:54:21;;;;;;;0.22;0.10;;;8.40;99.90;;;7.09;89.24;102432.66;5000696;28;20157;-76
2023/05/20 02:56:47;;;;;;;1.10;0.20;;;8.40;99.90;;;7.01;87.62;102430.94;5065057;28;20121;-74
2023/05/20 02:59:13;;;;;;;0.20;0.20;;;8.30;99.90;;;6.97;87.79;102430.94;4993492;28;20030;-75
2023/05/20 03:01:39;;;;;;;0.20;0.10;;;8.30;99.90;;;7.01;87.53;102434.41;5046997;28;20037;-74
2023/05/20 03:04:05;;;;;;;2.28;0.20;;;8.40;99.90;;;7.11;87.77;102432.66;4994229;28;20028;-75
2023/05/20 03:06:31;;;;;;;0.00;0.00;;;8.40;99.90;;;7.19;88.03;102436.97;5072226;28;20022;-75
2023/05/20 03:08:58;;;;;;;0.22;0.15;;;8.50;99.90;;;7.34;88.44;102429.88;5065367;28;20692;-75
2023/05/20 03:11:24;;;;;;;0.20;0.20;;;8.70;99.90;;;7.53;89.56;102433.25;5065813;28;20438;-76
2023/05/20 03:13:50;;;;;;;0.30;0.20;;;8.80;99.90;;;7.69;90.85;102431.41;5064665;28;20026;-76
2023/05/20 03:16:16;;;;;;;0.20;0.20;;;8.90;99.90;;;7.88;91.95;102430.38;5065275;28;20076;-75
2023/05/20 03:18:42;;;;;;;0.68;0.40;;;9.10;99.90;;;8.05;91.12;102432.00;5065954;28;20026;-76
2023/05/20 03:21:08;;;;;;;1.13;0.40;;;9.30;99.90;;;8.17;90.23;102427.50;5009124;28;20354;-75
2023/05/20 03:23:34;;;;;;;0.52;0.30;;;9.40;99.90;;;8.33;91.32;102433.47;4999708;28;20135;-74
2023/05/20 03:26:00;;;;;;;0.22;0.22;;;9.50;99.90;;;8.45;89.94;102447.41;5064193;28;20402;-74
2023/05/20 03:28:26;;;;;;;0.32;0.20;;;9.60;99.90;;;8.51;88.89;102447.31;5064340;28;20475;-73
2023/05/20 03:30:52;;;;;;;0.20;0.20;;;9.70;99.90;;;8.54;88.13;102436.81;5053425;28;20105;-73
2023/05/20 03:33:18;;;;;;;0.57;0.15;;;9.70;99.90;;;8.59;87.33;102441.09;5046848;28;20022;-73
2023/05/20 03:35:43;;;;;;;1.10;0.20;;;9.80;99.90;;;8.62;86.61;102442.84;5054503;28;20139;-74
2023/05/20 03:38:09;;;;;;;0.55;0.50;;;9.80;99.90;;;8.67;86.29;102446.28;5062957;28;20079;-74
2023/05/20 03:40:35;;;;;;;0.75;0.10;;;9.90;99.90;;;8.74;85.75;102439.19;5064318;28;20033;-74
2023/05/20 03:43:01;;;;;;;0.25;0.20;;;9.90;99.90;;;8.78;86.38;102449.66;5063548;28;20559;-74
2023/05/20 03:45:27;;;;;;;0.20;0.20;;;9.90;99.90;;;8.83;85.68;102437.34;5068845;28;20034;-74
2023/05/20 03:47:53;;;;;;;0.60;0.20;;;10.00;99.90;;;8.89;86.18;102448.66;5065855;28;20114;-74
2023/05/20 03:50:18;;;;;;;0.17;0.15;;;10.10;99.90;;;8.95;86.08;102453.84;5064028;28;20654;-73
2023/05/20 03:52:44;;;;;;;0.45;0.20;;;10.10;99.90;;;9.00;85.71;102452.88;5040807;28;20038;-73
2023/05/20 03:55:10;;;;;;;0.20;0.20;;;10.20;99.90;;;9.07;85.71;102452.81;5065188;28;20042;-74
2023/05/20 03:57:36;;;;;;;0.40;0.20;;;10.20;99.90;;;9.13;85.39;102450.97;5066877;28;20121;-73
2023/05/20 04:00:09;;;;;;;0.22;0.10;;;10.30;99.90;;;9.21;84.95;102450.88;5058716;28;20524;-73
2023/05/20 04:02:35;;;;;;;0.77;0.30;;;10.30;99.90;;;9.30;84.96;102457.75;5052826;28;20041;-73
2023/05/20 04:05:01;;;;;;;0.52;0.20;;;10.40;99.90;;;9.35;84.87;102450.69;5066080;28;20068;-74
2023/05/20 04:07:28;;;;;;;0.40;0.10;;;10.50;99.90;;;9.44;84.28;102455.81;5002009;28;20042;-73
2023/05/20 04:09:54;;;;;;;2.40;0.30;;;10.50;99.90;;;9.48;85.34;102452.25;5001181;28;20038;-73
2023/05/20 04:12:20;;;;;;;0.30;0.20;;;10.60;99.90;;;9.57;84.63;102457.38;5054888;28;20044;-74
2023/05/20 04:14:48;;;;;;;0.70;0.13;;;10.60;99.90;;;9.65;84.58;102458.13;5021890;28;20516;-74
2023/05/20 04:17:14;;;;;;;0.20;0.20;;;10.70;99.90;;;9.70;84.36;102449.28;5055615;28;20053;-73
2023/05/20 04:19:40;;;;;;;0.20;0.20;;;10.80;99.90;;;9.84;85.00;102457.84;5064506;28;20034;-73
2023/05/20 04:22:06;;;;;;;;;;;10.80;99.90;;;10.00;85.35;102458.44;5063766;28;20071;-73
2023/05/20 04:24:31;;;;;;;0.05;0.05;;;11.00;99.90;;;10.18;85.44;102459.94;5066353;28;19914;-74
2023/05/20 04:26:57;;;;;;;1.65;0.30;;;11.20;99.90;;;10.47;83.56;102464.69;5065013;28;20689;-73
2023/05/20 04:29:23;;;;;;;0.20;0.20;;;11.40;99.90;;;10.64;82.90;102459.97;5004941;28;20041;-74
2023/05/20 04:31:49;;;;;;;1.35;0.68;;;11.60;99.90;;;10.90;82.69;102471.75;5053102;28;20032;-74
2023/05/20 04:34:18;;;;;;;0.25;0.13;;;11.80;99.90;;;11.18;82.68;102477.34;5004154;28;20036;-74
2023/05/20 04:36:44;;;;;;;0.77;0.40;;;12.10;99.90;;;11.64;80.58;102480.72;5049862;28;20046;-74
2023/05/20 04:39:10;;;;;;;4.68;0.40;;;12.30;99.90;;;11.76;80.04;102480.44;5069535;28;20034;-73
2023/05/20 04:41:36;;;;;;;1.17;0.50;;;12.50;99.90;;;12.02;78.08;102474.56;5050725;28;20078;-74
2023/05/20 04:44:02;;;;;;;0.35;0.22;;;12.70;99.90;;;12.30;78.00;102471.22;5060572;28;20095;-74
2023/05/20 04:46:28;;;;;;;0.50;0.28;;;13.00;99.90;;;12.76;77.50;102477.91;5070085;28;20144;-73
2023/05/20 04:48:54;;;;;;;0.40;0.32;;;13.30;99.90;;;13.17;75.70;102485.56;5058787;28;20546;-73
2023/05/20 04:51:20;;;;;;;0.88;0.52;;;13.60;99.90;;;13.45;74.62;102483.84;5052343;28;20208;-73
2023/05/20 04:53:46;;;;;;;0.77;0.30;;;14.40;99.90;;;16.23;70.86;102518.06;5002945;28;20651;-74
2023/05/20 04:56:12;;;;;;;0.98;0.38;;;16.30;99.90;;;19.65;61.46;102521.81;5044955;28;20030;-74
2023/05/20 04:58:38;;;;;;;1.02;0.32;;;18.30;99.90;;;21.62;55.25;102533.16;5071489;28;20025;-74
2023/05/20 05:01:04;;;;;;;;;;;18.50;99.90;;;22.25;53.79;102534.44;5070652;28;20059;-74
2023/05/20 05:03:30;;;;;;;0.60;0.20;;;20.70;99.90;;;23.60;49.64;102546.41;5077403;28;19925;-74
2023/05/20 05:05:59;;;;;;;;;;;20.70;99.90;;;22.05;50.39;102527.66;5067457;28;20102;-74
2023/05/20 05:08:27;;;;;;;1.00;0.40;;;20.30;99.90;;;20.84;52.45;102521.09;5047272;28;20016;-74
2023/05/20 05:10:53;;;;;;;0.50;0.30;;;19.70;99.90;;;20.19;53.94;102520.53;5043110;28;20038;-74
2023/05/20 05:13:19;;;;;;;;;;;19.60;99.90;;;19.75;55.39;102532.00;5065051;28;20105;-75
2023/05/20 05:15:45;;;;;;;0.32;0.20;;;18.70;99.90;;;18.77;56.50;102512.34;5066471;28;19924;-74
2023/05/20 05:18:11;;;;;;;0.60;0.32;;;18.40;99.90;;;18.66;57.36;102517.38;5066864;28;20049;-74
2023/05/20 05:20:37;;;;;;;;;;;18.30;99.90;;;18.21;58.52;102517.00;5040954;28;20041;-74
2023/05/20 05:23:02;;;;;;;0.43;0.17;;;17.70;99.90;;;18.06;59.33;102509.78;5066268;28;19939;-74
2023/05/20 05:25:28;;;;;;;;;;;17.60;99.90;;;16.53;61.72;102494.63;5068120;28;20052;-74
2023/05/20 05:27:54;;;;;;;0.68;0.32;;;16.90;99.90;;;16.81;62.54;102504.09;5046636;28;19928;-74
2023/05/20 05:30:20;;;;;;;;;;;16.80;99.90;;;16.74;62.73;102505.28;5069519;28;20046;-75
2023/05/20 05:32:47;;;;;;;0.32;0.30;;;16.40;99.90;;;16.36;63.16;102502.47;4995511;28;19959;-74
2023/05/20 05:35:13;;;;;;;0.65;0.20;;;16.30;99.90;;;16.58;63.82;102502.41;5045876;28;20072;-74
2023/05/20 05:37:38;;;;;;;0.60;0.38;;;16.30;99.90;;;16.72;63.69;102502.66;5001342;28;20034;-74
2023/05/20 05:40:06;;;;;;;0.35;0.28;;;16.30;99.90;;;16.66;63.36;102508.25;5002738;28;20061;-74
2023/05/20 05:42:32;;;;;;;1.02;0.50;;;16.20;99.90;;;16.79;62.72;102495.28;5067421;28;20860;-74
2023/05/20 05:45:01;;;;;;;1.95;0.45;;;16.10;99.90;;;16.36;64.43;102497.16;5004469;28;20034;-74
2023/05/20 05:47:31;;;;;;;0.55;0.30;;;15.90;99.90;;;15.04;68.22;102492.66;5055662;28;20030;-74
2023/05/20 05:49:58;;;;;;;1.35;0.35;;;15.70;99.90;;;14.37;71.43;102485.28;5063826;28;20038;-75
2023/05/20 05:52:25;;;;;;;1.83;0.40;;;15.30;99.90;;;13.72;73.43;102475.97;5059876;28;20057;-75
2023/05/20 05:54:51;;;;;;;2.30;0.60;;;15.20;99.90;;;13.88;73.82;102484.28;5060248;28;20145;-74
2023/05/20 05:57:17;;;;;;;0.68;0.50;;;15.20;99.90;;;13.94;74.50;102484.09;5072344;28;20129;-74
2023/05/20 05:59:42;;;;;;;;;;;15.20;99.90;;;14.13;75.47;102479.91;5069188;28;20046;-75
2023/05/20 06:02:09;;;;;;;0.45;0.32;;;15.30;99.90;;;13.82;74.75;102485.38;5066692;28;19917;-75
2023/05/20 06:04:35;;;;;;;0.45;0.22;;;15.00;99.90;;;13.65;75.18;102480.59;5067354;28;20045;-75
2023/05/20 06:07:01;;;;;;;0.30;0.30;;;15.00;99.90;;;13.80;75.79;102481.91;5059528;28;20038;-75
2023/05/20 06:09:26;;;;;;;;;;;15.00;99.90;;;13.54;76.04;102475.66;5068923;28;20038;-75
2023/05/20 06:11:52;;;;;;;0.80;0.50;;;15.00;99.90;;;13.78;76.40;102488.13;5067365;28;20262;-74
2023/05/20 06:14:18;;;;;;;0.82;0.60;;;15.00;99.90;;;14.11;75.95;102481.75;5067734;28;20675;-74
2023/05/20 06:16:44;;;;;;;;;;;15.00;99.90;;;14.41;76.02;102489.56;5069850;28;20113;-74
2023/05/20 06:19:09;;;;;;;1.48;1.13;;;15.20;99.90;;;14.02;75.32;102487.38;5042539;28;19917;-74
2023/05/20 06:21:35;;;;;;;;;;;15.20;99.90;;;14.07;75.02;102484.56;5050925;28;20113;-74
2023/05/20 06:24:01;;;;;;;0.43;0.30;;;15.20;99.90;;;14.05;76.07;102487.25;5065678;28;19991;-74
2023/05/20 06:26:27;;;;;;;;;;;15.20;99.90;;;13.91;76.41;102479.75;5000920;28;20053;-75
2023/05/20 06:28:53;;;;;;;0.63;0.35;;;15.20;99.90;;;13.96;76.50;102482.25;5065603;28;19928;-75
2023/05/20 06:31:18;;;;;;;;;;;15.20;99.90;;;14.04;76.89;102485.53;5068608;28;20032;-74
2023/05/20 06:33:44;;;;;;;0.45;0.25;;;15.20;99.90;;;13.99;77.66;102482.16;5002051;28;20416;-73
2023/05/20 06:36:10;;;;;;;0.35;0.17;;;15.10;99.90;;;13.60;76.28;102479.88;5065259;28;20501;-75
2023/05/20 06:38:37;;;;;;;0.20;0.20;;;15.00;99.90;;;13.51;77.28;102474.88;5048456;28;20034;-75
2023/05/20 06:41:03;;;;;;;0.55;0.35;;;15.10;99.90;;;13.65;77.55;102475.31;5006167;28;20473;-74
2023/05/20 06:43:29;;;;;;;0.90;0.28;;;15.10;99.90;;;13.83;75.97;102475.63;5057420;28;20038;-74
2023/05/20 06:45:54;;;;;;;;;;;15.10;99.90;;;13.94;76.37;102469.06;5065483;28;20031;-74
2023/05/20 06:48:20;;;;;;;0.20;0.20;;;15.10;99.90;;;13.75;74.66;102468.78;5048693;28;19913;-75
2023/05/20 06:50:46;;;;;;;0.57;0.30;;;15.20;99.90;;;13.93;75.34;102467.34;5065290;28;20502;-74
2023/05/20 06:53:12;;;;;;;;;;;15.20;99.90;;;13.95;74.67;102467.28;5065609;28;20116;-74
2023/05/20 06:55:37;;;;;;;0.77;0.50;;;15.30;99.90;;;14.09;74.74;102462.38;5073748;28;20309;-75
2023/05/20 06:58:03;;;;;;;;;;;15.30;99.90;;;13.98;74.21;102455.72;5044957;28;20033;-74
2023/05/20 07:00:29;;;;;;;2.88;1.05;;;15.20;99.90;;;13.88;74.33;102453.38;5035399;28;20028;-73
2023/05/20 07:02:55;;;;;;;1.35;0.40;;;15.20;99.90;;;13.76;73.61;102453.78;5000092;28;20026;-74
2023/05/20 07:05:23;;;;;;;1.13;0.60;;;15.10;99.90;;;13.80;73.57;102460.72;5066828;28;20053;-74
2023/05/20 07:07:49;;;;;;;0.35;0.30;;;15.10;99.90;;;13.88;73.74;102465.75;4992530;28;20413;-73
2023/05/20 07:10:15;;;;;;;1.23;0.50;;;15.10;99.90;;;13.92;73.17;102459.44;5064904;28;20038;-74
2023/05/20 07:12:41;;;;;;;4.63;0.88;;;15.10;99.90;;;13.82;73.33;102460.66;5065183;28;20034;-74
2023/05/20 07:15:07;;;;;;;;;;;15.10;99.90;;;13.86;73.12;102451.69;5064553;28;20034;-74
2023/05/20 07:17:33;;;;;;;0.30;0.30;;;15.10;99.90;;;13.93;73.23;102455.84;5075569;28;19917;-75
2023/05/20 07:19:58;;;;;;;;;;;15.20;99.90;;;13.91;72.56;102457.72;5067623;28;20034;-74
2023/05/20 07:22:24;;;;;;;1.15;0.52;;;15.20;99.90;;;14.10;73.17;102452.66;5064807;28;19925;-78
2023/05/20 07:24:50;;;;;;;;;;;15.30;99.90;;;14.15;72.92;102456.88;5057725;28;20478;-78
2023/05/20 07:27:16;;;;;;;0.65;0.35;;;15.30;99.90;;;14.03;72.74;102452.00;4997148;28;19936;-72
2023/05/20 07:29:42;;;;;;;;;;;15.30;99.90;;;13.93;72.29;102455.84;5001108;28;20060;-73
2023/05/20 07:32:09;;;;;;;1.48;0.80;;;15.10;99.90;;;13.91;73.07;102463.03;5063857;28;19957;-73
2023/05/20 07:34:35;;;;;;;0.63;0.40;;;15.20;99.90;;;13.96;72.99;102447.84;5064667;28;20042;-75
2023/05/20 07:37:02;;;;;;;0.32;0.22;;;15.20;99.90;;;14.15;73.32;102453.38;5046105;28;20600;-75
2023/05/20 07:39:28;;;;;;;0.47;0.40;;;15.30;99.90;;;14.26;72.61;102447.72;5054693;28;20493;-74
2023/05/20 07:41:54;;;;;;;1.60;1.00;;;15.30;99.90;;;14.28;72.83;102451.19;5066997;28;20033;-74
2023/05/20 07:44:21;;;;;;;;;;;15.30;99.90;;;14.01;71.76;102447.69;5069878;28;20131;-76
2023/05/20 07:46:47;;;;;;;0.35;0.20;;;15.20;99.90;;;14.16;72.50;102453.31;5072566;28;19920;-75
2023/05/20 07:49:13;;;;;;;0.60;0.40;;;15.30;99.90;;;14.10;72.49;102448.25;5065051;28;20046;-75
2023/05/20 07:51:39;;;;;;;1.67;0.65;;;15.30;99.90;;;14.29;72.30;102447.59;5065798;28;20038;-76
2023/05/20 07:54:05;;;;;;;;;;;15.30;99.90;;;14.41;71.26;102451.63;5064213;28;20037;-75
2023/05/20 07:56:32;;;;;;;0.70;0.60;;;15.50;99.90;;;14.33;71.57;102443.91;5063320;28;19913;-75
2023/05/20 07:58:59;;;;;;;0.40;0.15;;;15.30;99.90;;;14.07;71.43;102447.47;4998450;28;20389;-76
2023/05/20 08:01:26;;;;;;;0.40;0.40;;;15.40;99.90;;;14.39;70.91;102454.31;5037086;28;20134;-78
2023/05/20 08:03:52;;;;;;;1.17;0.52;;;15.50;99.90;;;14.34;70.56;102445.63;5061752;28;20048;-74
2023/05/20 08:06:23;;;;;;;2.03;0.40;;;15.50;99.90;;;14.71;70.42;102455.00;5036195;28;20042;-75
2023/05/20 08:08:49;;;;;;;1.30;0.43;;;15.70;99.90;;;15.00;69.83;102458.34;5061149;28;20037;-75
2023/05/20 08:11:14;;;;;;;1.00;0.50;;;15.90;99.90;;;15.27;68.52;102448.44;5054090;28;20087;-74
2023/05/20 08:13:40;;;;;;;3.65;0.47;;;16.10;99.90;;;15.43;68.03;102459.34;5053552;28;20030;-75
2023/05/20 08:16:06;;;;;;;;;;;16.10;99.90;;;15.59;67.48;102455.13;5063933;28;20037;-74
2023/05/20 08:18:37;;;;;;;1.55;0.43;;;16.50;99.90;;;15.64;66.78;102453.16;5055991;28;19927;-74
2023/05/20 08:21:05;;;;;;;2.72;0.50;;;16.50;99.90;;;15.59;66.42;102456.03;5054241;28;20045;-75
2023/05/20 08:23:31;;;;;;;0.43;0.32;;;16.60;99.90;;;15.45;66.53;102452.19;5062955;28;20471;-75
2023/05/20 08:26:00;;;;;;;0.43;0.30;;;16.90;99.90;;;15.76;66.20;102454.47;5053306;28;20086;-75
2023/05/20 08:28:26;;;;;;;1.23;0.57;;;17.00;99.90;;;15.96;65.94;102462.50;5061835;28;20456;-74
2023/05/20 08:30:53;;;;;;;0.95;0.70;;;17.10;99.90;;;16.01;65.22;102446.38;5063565;28;20425;-76
2023/05/20 08:33:20;;;;;;;0.68;0.55;;;17.10;99.90;;;15.92;65.36;102450.28;5061578;28;20167;-74
2023/05/20 08:35:47;;;;;;;0.95;0.20;;;17.10;99.90;;;15.86;65.72;102433.72;5039048;28;20032;-75
2023/05/20 08:38:13;;;;;;;0.95;0.40;;;17.10;99.90;;;15.84;65.81;102446.22;5050259;28;20040;-75
2023/05/20 08:40:39;;;;;;;0.10;0.10;;;16.90;99.90;;;15.56;65.70;102432.22;5062324;28;20038;-75
2023/05/20 08:43:08;;;;;;;0.93;0.10;;;16.80;99.90;;;15.46;65.83;102437.97;5012376;28;20069;-75
2023/05/20 08:45:38;;;;;;;0.80;0.40;;;16.80;99.90;;;15.57;67.47;102427.78;5058028;28;20041;-74
2023/05/20 08:48:04;;;;;;;1.13;0.43;;;16.90;99.90;;;16.00;67.18;102426.03;5046087;28;20060;-74
2023/05/20 08:50:31;;;;;;;2.67;0.73;;;17.00;99.90;;;16.14;66.75;102438.75;5061608;28;20528;-76
2023/05/20 08:53:00;;;;;;;0.40;0.15;;;17.00;99.90;;;15.76;65.59;102430.56;5051994;28;20046;-75
2023/05/20 08:55:42;;;;;;;0.15;0.10;;;17.00;99.90;;;16.06;64.99;102425.78;5061868;28;20041;-75
2023/05/20 08:58:09;;;;;;;3.13;0.40;;;17.20;99.90;;;15.95;65.65;102428.03;5069922;28;20105;-75
2023/05/20 09:00:36;;;;;;;1.27;0.60;;;17.10;99.90;;;15.79;64.88;102420.72;5060997;28;20081;-75
2023/05/20 09:03:05;;;;;;;0.77;0.35;;;17.20;99.90;;;16.26;64.73;102427.56;5062376;28;20038;-75
2023/05/20 09:05:31;;;;;;;0.25;0.15;;;17.20;99.90;;;16.24;64.34;102425.91;4982675;28;20056;-74
2023/05/20 09:08:09;;;;;;;0.65;0.30;;;17.20;99.90;;;16.17;63.50;102426.16;5053264;28;20116;-74
2023/05/20 09:10:37;;;;;;;2.42;1.35;;;17.10;99.90;;;15.75;64.20;102428.88;5053524;28;20442;-74
2023/05/20 09:13:09;;;;;;;0.30;0.30;;;16.90;99.90;;;15.66;65.89;102429.19;5063203;28;20045;-75
2023/05/20 09:15:39;;;;;;;2.65;0.55;;;16.90;99.90;;;16.09;65.37;102430.97;5065529;28;20033;-75
2023/05/20 09:18:10;;;;;;;1.05;0.60;;;17.00;99.90;;;15.88;65.26;102429.22;5055984;28;20030;-74
2023/05/20 09:20:40;;;;;;;1.27;0.60;;;16.90;99.90;;;15.92;65.76;102425.50;5067634;28;20436;-75
2023/05/20 09:23:09;;;;;;;1.92;0.90;;;17.00;99.90;;;16.29;64.92;102429.25;5049982;28;20044;-74
2023/05/20 09:25:36;;;;;;;2.28;0.45;;;17.10;99.90;;;16.06;64.01;102424.91;5048473;28;20037;-75
2023/05/20 09:28:07;;;;;;;1.20;0.50;;;17.10;99.90;;;16.19;64.97;102429.63;5060465;28;20042;-75
2023/05/20 09:30:36;;;;;;;3.03;0.32;;;17.20;99.90;;;16.48;64.34;102446.13;5069024;28;20068;-75
2023/05/20 09:33:04;;;;;;;0.30;0.30;;;17.30;99.90;;;16.21;64.16;102437.53;5003604;28;20389;-74
2023/05/20 09:35:33;;;;;;;3.15;0.45;;;17.30;99.90;;;16.00;64.50;102439.31;5062068;28;20028;-75
2023/05/20 09:38:03;;;;;;;1.67;0.55;;;17.20;99.90;;;16.12;65.04;102430.81;5063705;28;20041;-74
2023/05/20 09:40:30;;;;;;;0.70;0.40;;;17.10;99.90;;;15.72;65.90;102435.19;5069930;28;20038;-75
2023/05/20 09:43:01;;;;;;;0.75;0.55;;;16.90;99.90;;;15.64;66.47;102431.94;5048048;28;20089;-74
2023/05/20 09:45:27;;;;;;;1.67;0.70;;;17.00;99.90;;;16.05;65.76;102421.41;5066226;28;20099;-74
2023/05/20 09:47:55;;;;;;;0.68;0.60;;;17.00;99.90;;;16.12;66.31;102429.97;5051546;28;20069;-73
2023/05/20 09:50:23;;;;;;;0.77;0.63;;;17.10;99.90;;;16.10;64.91;102429.16;5058790;28;20500;-74
2023/05/20 09:52:54;;;;;;;0.55;0.38;;;16.90;99.90;;;15.97;65.48;102428.81;5065948;28;20041;-74
2023/05/20 09:55:26;;;;;;;3.42;0.50;;;17.00;99.90;;;16.02;65.81;102423.31;5067978;28;20490;-75
2023/05/20 09:57:56;;;;;;;0.60;0.30;;;17.00;99.90;;;15.94;65.47;102428.97;5057741;28;20049;-76
2023/05/20 10:00:25;;;;;;;1.50;0.50;;;17.00;99.90;;;16.17;65.22;102423.50;5054963;27;20053;-75
2023/05/20 10:02:56;;;;;;;1.23;0.68;;;17.20;99.90;;;16.45;65.01;102430.28;5068134;28;20090;-74
2023/05/20 10:05:54;;;;;;;0.95;0.32;;;17.30;99.90;;;16.56;64.34;102430.66;5065458;28;20042;-75
2023/05/20 10:08:47;;;;;;;1.92;0.40;;;17.40;99.90;;;16.25;64.24;102422.34;5061108;28;20062;-74
2023/05/20 10:12:06;;;;;;;0.40;0.30;;;17.20;99.90;;;15.97;64.86;102423.50;5079869;28;20051;-75
2023/05/20 10:14:47;;;;;;;;;;;17.20;99.90;;;16.20;65.03;102414.56;5009479;28;20120;-75
2023/05/20 10:17:39;;;;;;;0.32;0.20;;;17.30;99.90;;;16.76;64.06;102423.56;5070847;28;20625;-74
2023/05/20 10:20:10;;;;;;;0.10;0.10;;;17.70;99.90;;;17.07;63.16;102420.41;5045096;28;20146;-75
2023/05/20 10:22:40;;;;;;;0.40;0.40;;;17.80;99.90;;;16.72;62.29;102422.03;5055389;28;20231;-76